Air Navigation Services of Czech Republic
Airport: LKPR Updated:  18.07.2019 17:01:27  UTC
 METAR LKPR 18.07. 17:00 ...
METAR LKPR 181700Z 09004KT CAVOK 25/08 Q1012 NOSIG RMK REG QNH 1011=
 TAF LKPR 18.07. 17:00 ...
TAF LKPR 181700Z 1818/2000 16004KT CAVOK      BECMG 1901/1903 29008KT      TEMPO 1905/1910 -RA BKN035      BECMG 1910/1912 03005KT      TEMPO 1910/1917 7000 SHRA SCT045CB      BECMG 1922/2000 VRB02KT=